createdAt,value
2017-10-08T00:01:44.138Z,99.90
2017-10-08T00:04:15.455Z,99.90
2017-10-08T00:06:46.100Z,99.90
2017-10-08T00:09:17.668Z,99.90
2017-10-08T00:11:49.410Z,99.90
2017-10-08T00:14:20.704Z,99.90
2017-10-08T00:16:51.386Z,99.90
2017-10-08T00:19:22.772Z,99.90
2017-10-08T00:21:53.253Z,99.90
2017-10-08T00:24:23.799Z,99.90
2017-10-08T00:26:54.410Z,99.90
2017-10-08T00:29:25.240Z,99.90
2017-10-08T00:31:56.594Z,99.90
2017-10-08T00:34:27.488Z,99.90
2017-10-08T00:36:58.253Z,99.90
2017-10-08T00:39:28.666Z,99.90
2017-10-08T00:42:00.193Z,99.90
2017-10-08T00:44:31.739Z,99.90
2017-10-08T00:47:02.720Z,99.90
2017-10-08T00:49:33.531Z,99.90
2017-10-08T00:52:03.998Z,99.90
2017-10-08T00:54:35.025Z,99.90
2017-10-08T00:57:05.635Z,99.90
2017-10-08T00:59:35.970Z,99.90
2017-10-08T01:02:06.838Z,99.90
2017-10-08T01:04:37.743Z,99.90
2017-10-08T01:07:08.550Z,99.90
2017-10-08T01:09:39.162Z,99.90
2017-10-08T01:12:09.777Z,99.90
2017-10-08T01:14:41.273Z,99.90
2017-10-08T01:17:11.861Z,99.90
2017-10-08T01:19:43.488Z,99.90
2017-10-08T01:22:14.161Z,99.90
2017-10-08T01:24:45.108Z,99.90
2017-10-08T01:27:16.308Z,99.90
2017-10-08T01:29:46.838Z,99.90
2017-10-08T01:32:18.667Z,99.90
2017-10-08T01:34:49.414Z,99.90
2017-10-08T01:37:20.123Z,99.90
2017-10-08T01:39:50.661Z,99.90
2017-10-08T01:42:21.154Z,99.90
2017-10-08T01:44:51.968Z,99.90
2017-10-08T01:47:22.768Z,99.90
2017-10-08T01:49:53.032Z,99.90
2017-10-08T01:52:23.656Z,99.90
2017-10-08T01:54:54.307Z,99.90
2017-10-08T01:57:25.200Z,99.90
2017-10-08T01:59:58.213Z,99.90
2017-10-08T02:02:29.036Z,99.90
2017-10-08T02:04:59.862Z,99.90
2017-10-08T02:07:30.049Z,99.90
2017-10-08T02:10:01.257Z,99.90
2017-10-08T02:12:31.933Z,99.90
2017-10-08T02:15:02.457Z,99.90
2017-10-08T02:17:33.168Z,99.90
2017-10-08T02:20:04.627Z,99.90
2017-10-08T02:22:36.052Z,99.90
2017-10-08T02:25:06.905Z,99.90
2017-10-08T02:27:38.065Z,99.90
2017-10-08T02:30:08.979Z,99.90
2017-10-08T02:32:39.525Z,99.90
2017-10-08T02:35:11.372Z,99.90
2017-10-08T02:37:42.064Z,99.90
2017-10-08T02:40:12.358Z,99.90
2017-10-08T02:42:42.459Z,99.90
2017-10-08T02:45:13.859Z,99.90
2017-10-08T02:47:44.358Z,99.90
2017-10-08T02:50:15.046Z,99.90
2017-10-08T02:52:45.488Z,99.90
2017-10-08T02:55:16.165Z,99.90
2017-10-08T02:57:46.835Z,99.90
2017-10-08T03:00:17.453Z,99.90
2017-10-08T03:02:48.630Z,99.90
2017-10-08T03:05:20.283Z,99.90
2017-10-08T03:07:50.723Z,99.90
2017-10-08T03:10:22.208Z,99.90
2017-10-08T03:12:52.729Z,99.90
2017-10-08T03:15:23.489Z,99.90
2017-10-08T03:17:53.755Z,99.90
2017-10-08T03:20:25.245Z,99.90
2017-10-08T03:22:55.965Z,99.90
2017-10-08T03:25:26.353Z,99.90
2017-10-08T03:27:57.719Z,99.90
2017-10-08T03:30:28.312Z,99.90
2017-10-08T03:32:58.967Z,99.90
2017-10-08T03:35:30.403Z,99.90
2017-10-08T03:38:02.778Z,99.90
2017-10-08T03:40:33.754Z,99.90
2017-10-08T03:43:04.271Z,99.90
2017-10-08T03:45:35.754Z,99.90
2017-10-08T03:48:05.928Z,99.90
2017-10-08T03:50:37.522Z,99.90
2017-10-08T03:53:07.925Z,99.90
2017-10-08T03:55:38.176Z,99.90
2017-10-08T03:58:08.587Z,99.90
2017-10-08T04:00:39.204Z,99.90
2017-10-08T04:03:09.525Z,99.90
2017-10-08T04:05:40.899Z,99.90
2017-10-08T04:08:11.306Z,99.90
2017-10-08T04:10:42.647Z,99.90
2017-10-08T04:13:13.805Z,99.90
2017-10-08T04:15:44.862Z,99.90
2017-10-08T04:18:15.099Z,99.90
2017-10-08T04:20:45.477Z,99.90
2017-10-08T04:23:16.274Z,99.90
2017-10-08T04:25:46.892Z,99.90
2017-10-08T04:28:17.143Z,99.90
2017-10-08T04:30:47.795Z,99.90
2017-10-08T04:33:19.125Z,99.90
2017-10-08T04:35:49.814Z,99.90
2017-10-08T04:38:20.623Z,99.90
2017-10-08T04:40:51.637Z,99.90
2017-10-08T04:43:23.285Z,99.90
2017-10-08T04:45:53.984Z,99.90
2017-10-08T04:48:24.547Z,99.90
2017-10-08T04:50:55.332Z,99.90
2017-10-08T04:53:26.014Z,99.90
2017-10-08T04:55:56.750Z,99.90
2017-10-08T04:58:27.210Z,99.90
2017-10-08T05:00:57.769Z,99.90
2017-10-08T05:03:28.392Z,99.90
2017-10-08T05:05:59.008Z,99.90
2017-10-08T05:08:29.951Z,99.90
2017-10-08T05:11:00.331Z,99.90
2017-10-08T05:13:30.815Z,99.90
2017-10-08T05:16:00.981Z,99.90
2017-10-08T05:18:32.624Z,99.90
2017-10-08T05:21:03.047Z,99.90
2017-10-08T05:23:33.740Z,99.90
2017-10-08T05:26:04.424Z,99.90
2017-10-08T05:28:35.881Z,99.90
2017-10-08T05:31:07.458Z,99.90
2017-10-08T05:33:38.543Z,99.90
2017-10-08T05:36:09.181Z,99.90
2017-10-08T05:38:40.215Z,99.90
2017-10-08T05:41:11.044Z,99.90
2017-10-08T05:43:41.696Z,99.90
2017-10-08T05:46:12.769Z,99.90
2017-10-08T05:48:44.172Z,99.90
2017-10-08T05:51:14.839Z,99.90
2017-10-08T05:53:46.061Z,99.90
2017-10-08T05:56:16.342Z,99.90
2017-10-08T05:58:46.953Z,99.90
2017-10-08T06:01:18.620Z,99.90
2017-10-08T06:03:49.224Z,99.90
2017-10-08T06:06:20.502Z,99.90
2017-10-08T06:08:50.909Z,99.90
2017-10-08T06:11:21.637Z,99.90
2017-10-08T06:13:52.025Z,99.90
2017-10-08T06:16:22.692Z,99.90
2017-10-08T06:18:53.223Z,99.90
2017-10-08T06:21:25.129Z,99.90
2017-10-08T06:23:56.081Z,99.90
2017-10-08T06:26:26.806Z,99.90
2017-10-08T06:28:57.348Z,99.90
2017-10-08T06:31:28.309Z,99.90
2017-10-08T06:34:00.512Z,99.90
2017-10-08T06:36:31.640Z,99.90
2017-10-08T06:39:03.224Z,99.90
2017-10-08T06:41:33.904Z,99.90
2017-10-08T06:44:05.291Z,99.90
2017-10-08T06:46:36.098Z,99.90
2017-10-08T06:49:06.580Z,99.90
2017-10-08T06:51:36.849Z,99.90
2017-10-08T06:54:08.326Z,99.90
2017-10-08T06:56:39.273Z,99.90
2017-10-08T06:59:09.866Z,99.90
2017-10-08T07:01:41.308Z,99.90
2017-10-08T07:04:11.984Z,99.90
2017-10-08T07:06:43.208Z,99.90
2017-10-08T07:09:14.827Z,99.90
2017-10-08T07:11:45.644Z,99.90
2017-10-08T07:14:16.671Z,99.90
2017-10-08T07:16:47.503Z,99.90
2017-10-08T07:19:18.348Z,99.90
2017-10-08T07:21:48.803Z,99.80
2017-10-08T07:24:19.476Z,99.80
2017-10-08T07:26:50.081Z,99.50
2017-10-08T07:29:21.409Z,99.20
2017-10-08T07:31:51.750Z,98.90
2017-10-08T07:34:22.523Z,98.80
2017-10-08T07:36:54.209Z,99.00
2017-10-08T07:39:24.909Z,99.00
2017-10-08T07:41:56.490Z,99.00
2017-10-08T07:44:27.737Z,98.80
2017-10-08T07:46:58.847Z,98.90
2017-10-08T07:49:29.675Z,98.80
2017-10-08T07:52:01.114Z,99.00
2017-10-08T07:54:32.800Z,99.10
2017-10-08T07:57:04.751Z,99.10
2017-10-08T07:59:35.905Z,98.70
2017-10-08T08:02:07.996Z,98.50
2017-10-08T08:04:39.635Z,98.50
2017-10-08T08:07:10.260Z,97.90
2017-10-08T08:09:41.036Z,97.50
2017-10-08T08:12:15.079Z,97.60
2017-10-08T08:14:45.338Z,97.70
2017-10-08T08:17:16.139Z,97.10
2017-10-08T08:19:47.073Z,96.00
2017-10-08T08:22:18.230Z,95.70
2017-10-08T08:24:49.663Z,96.50
2017-10-08T08:27:20.393Z,96.50
2017-10-08T08:29:52.057Z,96.50
2017-10-08T08:32:23.409Z,96.80
2017-10-08T08:34:54.279Z,96.70
2017-10-08T08:37:26.154Z,96.40
2017-10-08T08:39:57.041Z,95.40
2017-10-08T08:42:28.548Z,94.90
2017-10-08T08:45:00.231Z,94.10
2017-10-08T08:47:31.884Z,94.10
2017-10-08T08:50:02.884Z,94.70
2017-10-08T08:52:34.017Z,94.60
2017-10-08T08:55:05.198Z,95.30
2017-10-08T08:57:36.659Z,96.10
2017-10-08T09:00:08.712Z,96.30
2017-10-08T09:02:39.864Z,96.30
2017-10-08T09:05:11.368Z,96.40
2017-10-08T09:07:43.023Z,95.80
2017-10-08T09:10:14.408Z,95.70
2017-10-08T09:12:46.017Z,95.10
2017-10-08T09:15:17.512Z,95.10
2017-10-08T09:17:48.447Z,95.40
2017-10-08T09:20:20.741Z,92.80
2017-10-08T09:22:52.164Z,92.80
2017-10-08T09:25:24.109Z,92.40
2017-10-08T09:27:54.897Z,92.40
2017-10-08T09:30:26.622Z,92.90
2017-10-08T09:32:58.916Z,92.10
2017-10-08T09:35:30.248Z,91.90
2017-10-08T09:38:01.896Z,91.50
2017-10-08T09:40:33.340Z,92.50
2017-10-08T12:15:51.077Z,92.00
2017-10-08T12:18:23.284Z,90.60
2017-10-08T12:20:54.537Z,90.60
2017-10-08T12:23:25.570Z,90.50
2017-10-08T12:25:57.392Z,90.50
2017-10-08T12:28:29.399Z,82.40
2017-10-08T12:31:00.559Z,82.30
2017-10-08T12:33:31.986Z,80.40
2017-10-08T12:36:02.592Z,81.60
2017-10-08T12:38:33.937Z,83.30
2017-10-08T12:41:06.583Z,87.90
2017-10-08T12:43:37.676Z,87.90
2017-10-08T12:46:08.716Z,87.70
2017-10-08T12:48:39.549Z,88.90
2017-10-08T12:51:10.821Z,88.90
2017-10-08T12:53:42.231Z,89.80
2017-10-08T12:56:12.991Z,90.50
2017-10-08T12:58:44.601Z,90.60
2017-10-08T13:01:15.846Z,90.90
2017-10-08T13:03:47.633Z,90.70
2017-10-08T13:06:18.599Z,90.60
2017-10-08T13:08:49.968Z,91.20
2017-10-08T13:11:21.355Z,91.40
2017-10-08T13:13:52.216Z,91.50
2017-10-08T13:16:23.672Z,91.10
2017-10-08T13:18:54.517Z,90.50
2017-10-08T13:21:25.982Z,89.10
2017-10-08T13:23:57.382Z,89.40
2017-10-08T13:26:29.115Z,90.10
2017-10-08T13:29:00.145Z,87.70
2017-10-08T13:31:32.008Z,87.20
2017-10-08T13:34:03.508Z,87.20
2017-10-08T13:36:34.835Z,86.00
2017-10-08T13:39:05.926Z,83.70
2017-10-08T13:41:37.135Z,84.00
2017-10-08T13:44:09.029Z,83.80
2017-10-08T13:46:40.556Z,84.00
2017-10-08T13:49:11.593Z,85.10
2017-10-08T13:51:43.017Z,84.70
2017-10-08T13:54:14.834Z,85.50
2017-10-08T13:56:46.305Z,85.40
2017-10-08T13:59:17.830Z,85.60
2017-10-08T14:01:50.347Z,85.20
2017-10-08T14:04:21.800Z,85.10
2017-10-08T14:06:53.853Z,86.10
2017-10-08T14:09:25.529Z,86.00
2017-10-08T14:11:56.509Z,85.30
2017-10-08T14:14:27.258Z,85.90
2017-10-08T14:16:58.205Z,86.70
2017-10-08T14:19:30.099Z,87.60
2017-10-08T14:22:01.202Z,86.70
2017-10-08T14:24:32.506Z,88.00
2017-10-08T14:27:03.925Z,88.30
2017-10-08T14:29:35.719Z,88.40
2017-10-08T14:32:06.630Z,88.30
2017-10-08T14:34:38.969Z,89.50
2017-10-08T14:37:10.362Z,89.60
2017-10-08T14:39:41.859Z,89.50
2017-10-08T14:42:13.936Z,89.30
2017-10-08T14:44:45.455Z,89.30
2017-10-08T14:47:16.407Z,89.60
2017-10-08T14:49:48.254Z,90.20
2017-10-08T14:52:20.794Z,90.90
2017-10-08T14:54:51.867Z,90.90
2017-10-08T14:57:23.644Z,91.30
2017-10-08T14:59:54.954Z,91.30
2017-10-08T15:02:26.586Z,91.80
2017-10-08T15:04:57.959Z,92.10
2017-10-08T15:07:29.042Z,92.60
2017-10-08T15:09:59.929Z,92.90
2017-10-08T15:12:31.145Z,93.10
2017-10-08T15:15:02.336Z,93.20
2017-10-08T15:17:33.801Z,93.40
2017-10-08T15:20:05.698Z,93.70
2017-10-08T15:22:38.269Z,94.10
2017-10-08T15:25:10.299Z,93.70
2017-10-08T15:27:41.625Z,93.70
2017-10-08T15:30:12.673Z,93.60
2017-10-08T15:32:43.397Z,93.40
2017-10-08T15:35:14.241Z,93.50
2017-10-08T15:37:45.509Z,93.60
2017-10-08T15:40:16.625Z,93.30
2017-10-08T15:42:48.040Z,93.30
2017-10-08T15:45:19.328Z,92.90
2017-10-08T15:47:49.841Z,92.90
2017-10-08T15:50:21.647Z,92.80
2017-10-08T15:52:52.434Z,92.70
2017-10-08T15:55:24.584Z,93.20
2017-10-08T15:57:55.554Z,93.20
2017-10-08T16:00:28.568Z,92.30
2017-10-08T16:03:00.419Z,92.30
2017-10-08T16:05:31.961Z,91.50
2017-10-08T16:08:03.217Z,91.70
2017-10-08T16:10:33.974Z,90.90
2017-10-08T16:13:04.469Z,91.10
2017-10-08T16:15:35.342Z,91.50
2017-10-08T16:18:06.654Z,91.10
2017-10-08T16:20:38.728Z,90.80
2017-10-08T16:23:09.015Z,90.80
2017-10-08T16:25:39.376Z,90.70
2017-10-08T16:28:10.795Z,90.80
2017-10-08T16:30:42.280Z,91.10
2017-10-08T16:33:14.110Z,91.30
2017-10-08T16:35:45.580Z,91.60
2017-10-08T16:38:17.547Z,91.50
2017-10-08T16:40:48.082Z,91.70
2017-10-08T16:43:20.160Z,91.50
2017-10-08T16:45:51.963Z,91.80
2017-10-08T16:48:22.998Z,91.80
2017-10-08T16:50:54.078Z,91.50
2017-10-08T16:53:24.579Z,91.50
2017-10-08T16:55:55.940Z,91.40
2017-10-08T16:58:27.033Z,91.40
2017-10-08T17:00:58.061Z,91.50
2017-10-08T17:03:28.953Z,91.50
2017-10-08T17:05:59.770Z,91.60
2017-10-08T17:08:31.016Z,91.80
2017-10-08T17:11:01.896Z,91.80
2017-10-08T17:13:32.657Z,91.70
2017-10-08T17:16:04.403Z,91.50
2017-10-08T17:18:35.249Z,91.70
2017-10-08T17:21:06.377Z,91.80
2017-10-08T17:23:36.908Z,91.80
2017-10-08T17:26:08.180Z,92.00
2017-10-08T17:28:39.158Z,92.10
2017-10-08T17:31:10.407Z,92.20
2017-10-08T17:33:40.726Z,92.30
2017-10-08T17:36:11.067Z,92.40
2017-10-08T17:38:41.726Z,92.50
2017-10-08T17:41:12.175Z,92.50
2017-10-08T17:43:44.527Z,92.60
2017-10-08T17:46:15.261Z,92.60
2017-10-08T17:48:46.291Z,92.90
2017-10-08T17:51:17.796Z,93.40
2017-10-08T17:53:48.959Z,93.40
2017-10-08T17:56:20.289Z,93.60
2017-10-08T17:58:51.095Z,93.80
2017-10-08T18:01:21.929Z,93.90
2017-10-08T18:03:53.268Z,94.20
2017-10-08T18:06:23.516Z,94.30
2017-10-08T18:08:54.191Z,94.50
2017-10-08T18:11:26.080Z,94.90
2017-10-08T18:13:58.375Z,94.70
2017-10-08T18:16:30.176Z,94.80
2017-10-08T18:19:01.740Z,94.80
2017-10-08T18:21:32.966Z,94.80
2017-10-08T18:24:03.990Z,95.00
2017-10-08T18:26:34.940Z,95.30
2017-10-08T18:29:06.574Z,95.50
2017-10-08T18:31:37.829Z,95.80
2017-10-08T18:34:09.046Z,95.80
2017-10-08T18:36:40.806Z,96.30
2017-10-08T18:39:12.258Z,96.30
2017-10-08T18:41:43.925Z,96.60
2017-10-08T18:44:16.083Z,96.80
2017-10-08T18:46:46.578Z,96.80
2017-10-08T18:49:19.536Z,97.10
2017-10-08T18:51:50.406Z,97.00
2017-10-08T18:54:22.656Z,97.30
2017-10-08T18:56:53.418Z,97.30
2017-10-08T18:59:24.391Z,97.40
2017-10-08T19:01:55.549Z,97.60
2017-10-08T19:04:26.312Z,97.60
2017-10-08T19:06:56.883Z,97.70
2017-10-08T19:09:28.135Z,97.70
2017-10-08T19:11:59.392Z,97.70
2017-10-08T19:14:30.329Z,97.90
2017-10-08T19:17:01.750Z,98.00
2017-10-08T19:19:32.789Z,98.10
2017-10-08T19:22:03.208Z,98.20
2017-10-08T19:24:34.087Z,98.40
2017-10-08T19:27:05.679Z,98.50
2017-10-08T19:29:37.005Z,98.50
2017-10-08T19:32:08.760Z,98.60
2017-10-08T19:34:39.691Z,98.60
2017-10-08T19:37:10.967Z,98.70
2017-10-08T19:39:42.343Z,98.80
2017-10-08T19:42:13.100Z,98.90
2017-10-08T19:44:45.169Z,99.00
2017-10-08T19:47:15.849Z,99.00
2017-10-08T19:49:46.948Z,99.00
2017-10-08T19:52:18.027Z,99.10
2017-10-08T19:54:49.427Z,99.10
2017-10-08T19:57:22.149Z,99.10
2017-10-08T19:59:53.552Z,99.10
2017-10-08T20:02:25.118Z,99.20
2017-10-08T20:04:56.916Z,99.20
2017-10-08T20:07:27.708Z,99.20
2017-10-08T20:09:59.308Z,99.20
2017-10-08T20:12:30.550Z,99.20
2017-10-08T20:15:01.881Z,99.20
2017-10-08T20:17:32.731Z,99.10
2017-10-08T20:20:03.826Z,99.10
2017-10-08T20:22:35.155Z,99.20
2017-10-08T20:25:06.313Z,99.20
2017-10-08T20:27:37.706Z,99.10
2017-10-08T20:30:09.082Z,99.10
2017-10-08T20:32:40.486Z,99.00
2017-10-08T20:35:11.859Z,99.00
2017-10-08T20:37:43.527Z,99.00
2017-10-08T20:40:14.692Z,99.00
2017-10-08T20:42:46.637Z,98.90
2017-10-08T20:45:17.230Z,98.90
2017-10-08T20:47:48.309Z,98.70
2017-10-08T20:50:18.967Z,98.60
2017-10-08T20:52:49.753Z,98.50
2017-10-08T20:55:20.738Z,98.40
2017-10-08T20:57:51.894Z,98.20
2017-10-08T21:00:22.889Z,98.00
2017-10-08T21:02:53.674Z,98.00
2017-10-08T21:05:24.996Z,97.80
2017-10-08T21:07:55.477Z,97.80
2017-10-08T21:10:26.248Z,97.80
2017-10-08T21:12:57.639Z,97.80
2017-10-08T21:15:28.292Z,97.90
2017-10-08T21:17:59.597Z,97.90
2017-10-08T21:20:31.940Z,98.00
2017-10-08T21:23:03.215Z,98.00
2017-10-08T21:25:34.459Z,98.10
2017-10-08T21:28:05.259Z,98.20
2017-10-08T21:30:36.398Z,98.20
2017-10-08T21:33:07.530Z,98.10
2017-10-08T21:35:38.593Z,98.20
2017-10-08T21:38:09.608Z,98.00
2017-10-08T21:40:41.082Z,98.00
2017-10-08T21:43:11.922Z,97.90
2017-10-08T21:45:44.327Z,97.80
2017-10-08T21:48:15.859Z,97.60
2017-10-08T21:50:47.967Z,97.60
2017-10-08T21:53:19.496Z,97.60
2017-10-08T21:55:50.440Z,97.50
2017-10-08T21:58:21.794Z,97.40
2017-10-08T22:00:53.250Z,97.20
2017-10-08T22:03:24.370Z,97.20
2017-10-08T22:05:55.787Z,97.00
2017-10-08T22:08:27.444Z,96.90
2017-10-08T22:10:58.746Z,96.90
2017-10-08T22:13:29.765Z,96.90
2017-10-08T22:16:00.959Z,96.90
2017-10-08T22:18:31.965Z,97.00
2017-10-08T22:21:03.834Z,97.00
2017-10-08T22:23:35.132Z,96.80
2017-10-08T22:26:05.666Z,96.80
2017-10-08T22:28:38.491Z,96.70
2017-10-08T22:31:09.663Z,96.70
2017-10-08T22:33:40.826Z,96.50
2017-10-08T22:36:12.017Z,96.40
2017-10-08T22:38:43.002Z,96.40
2017-10-08T22:41:14.391Z,96.30
2017-10-08T22:43:45.482Z,96.10
2017-10-08T22:46:16.485Z,96.00
2017-10-08T22:48:47.846Z,96.00
2017-10-08T22:51:18.550Z,96.00
2017-10-08T22:53:50.367Z,95.80
2017-10-08T22:56:21.541Z,95.80
2017-10-08T22:58:52.452Z,96.00
2017-10-08T23:01:23.086Z,96.10
2017-10-08T23:03:54.204Z,96.20
2017-10-08T23:06:25.942Z,96.20
2017-10-08T23:08:57.062Z,96.20
2017-10-08T23:11:28.241Z,96.00
2017-10-08T23:13:58.665Z,96.00
2017-10-08T23:16:29.130Z,96.00
2017-10-08T23:18:59.772Z,96.00
2017-10-08T23:21:30.542Z,95.90
2017-10-08T23:24:01.023Z,96.00
2017-10-08T23:26:31.909Z,95.90
2017-10-08T23:29:02.781Z,95.90
2017-10-08T23:31:33.306Z,95.90
2017-10-08T23:34:04.906Z,95.80
2017-10-08T23:36:36.772Z,95.70
2017-10-08T23:39:08.396Z,95.50
2017-10-08T23:41:44.992Z,95.40
2017-10-08T23:44:15.830Z,95.30
2017-10-08T23:46:47.487Z,95.40
2017-10-08T23:49:18.201Z,95.70
2017-10-08T23:51:48.778Z,95.60
2017-10-08T23:54:19.690Z,95.60
2017-10-08T23:56:50.867Z,95.80
2017-10-08T23:59:22.887Z,95.70
